createdAt,value
2018-08-22T00:00:00.100Z,20.98
2018-08-22T00:01:00.334Z,21.03
2018-08-22T00:02:00.141Z,21.07
2018-08-22T00:03:00.244Z,21.03
2018-08-22T00:04:00.177Z,21.06
2018-08-22T00:05:00.271Z,21.09
2018-08-22T00:06:00.166Z,20.99
2018-08-22T00:07:00.141Z,21.03
2018-08-22T00:08:00.110Z,21.03
2018-08-22T00:09:00.217Z,20.95
2018-08-22T00:10:01.041Z,20.95
2018-08-22T00:11:01.033Z,20.99
2018-08-22T00:12:00.121Z,20.94
2018-08-22T00:13:00.210Z,20.97
2018-08-22T00:14:00.184Z,20.94
2018-08-22T00:15:00.258Z,20.97
2018-08-22T00:16:00.188Z,20.92
2018-08-22T00:17:00.219Z,20.84
2018-08-22T00:18:00.304Z,20.92
2018-08-22T00:19:00.240Z,20.89
2018-08-22T00:20:00.241Z,20.92
2018-08-22T00:21:00.223Z,20.87
2018-08-22T00:22:00.231Z,20.82
2018-08-22T00:23:00.160Z,20.85
2018-08-22T00:24:00.231Z,20.92
2018-08-22T00:25:00.158Z,20.89
2018-08-22T00:26:00.251Z,20.87
2018-08-22T00:27:00.193Z,20.89
2018-08-22T00:28:00.188Z,20.82
2018-08-22T00:29:00.220Z,20.87
2018-08-22T00:30:00.193Z,20.84
2018-08-22T00:31:00.241Z,20.85
2018-08-22T00:32:00.214Z,20.87
2018-08-22T00:33:00.182Z,20.82
2018-08-22T00:34:00.187Z,20.85
2018-08-22T00:35:00.279Z,20.74
2018-08-22T00:36:00.184Z,20.70
2018-08-22T00:37:00.250Z,20.77
2018-08-22T00:38:00.236Z,20.74
2018-08-22T00:39:00.264Z,20.69
2018-08-22T00:40:00.198Z,20.73
2018-08-22T00:41:00.373Z,20.72
2018-08-22T00:42:00.208Z,20.74
2018-08-22T00:43:00.367Z,20.69
2018-08-22T00:44:00.272Z,20.69
2018-08-22T00:45:00.248Z,20.66
2018-08-22T00:46:00.223Z,20.67
2018-08-22T00:47:00.238Z,20.66
2018-08-22T00:48:01.051Z,20.69
2018-08-22T00:49:00.226Z,20.59
2018-08-22T00:50:00.281Z,20.62
2018-08-22T00:51:00.300Z,20.58
2018-08-22T00:52:00.379Z,20.54
2018-08-22T00:53:00.254Z,20.51
2018-08-22T00:54:00.562Z,20.51
2018-08-22T00:55:00.291Z,20.54
2018-08-22T00:56:00.390Z,20.54
2018-08-22T00:57:00.329Z,20.51
2018-08-22T00:58:00.281Z,20.48
2018-08-22T00:59:00.263Z,20.58
2018-08-22T01:00:00.263Z,20.57
2018-08-22T01:01:00.471Z,20.58
2018-08-22T01:02:00.455Z,20.48
2018-08-22T01:03:00.266Z,20.57
2018-08-22T01:04:00.255Z,20.52
2018-08-22T01:05:00.281Z,20.54
2018-08-22T01:06:00.280Z,20.57
2018-08-22T01:07:00.290Z,20.51
2018-08-22T01:08:00.294Z,20.51
2018-08-22T01:09:00.287Z,20.57
2018-08-22T01:10:00.289Z,20.47
2018-08-22T01:11:00.319Z,20.57
2018-08-22T01:12:00.284Z,20.47
2018-08-22T01:13:00.293Z,20.50
2018-08-22T01:14:01.061Z,20.55
2018-08-22T01:15:00.297Z,20.52
2018-08-22T01:16:00.316Z,20.50
2018-08-22T01:17:00.300Z,20.47
2018-08-22T01:18:00.315Z,20.47
2018-08-22T01:19:00.337Z,20.50
2018-08-22T01:20:00.334Z,20.59
2018-08-22T01:21:00.319Z,20.51
2018-08-22T01:22:00.301Z,20.48
2018-08-22T01:23:00.380Z,20.55
2018-08-22T01:24:00.335Z,20.62
2018-08-22T01:25:00.334Z,20.59
2018-08-22T01:26:00.323Z,20.50
2018-08-22T01:27:00.380Z,20.57
2018-08-22T01:28:00.314Z,20.55
2018-08-22T01:29:00.343Z,20.54
2018-08-22T01:30:00.340Z,20.55
2018-08-22T01:31:00.345Z,20.61
2018-08-22T01:32:00.390Z,20.50
2018-08-22T01:33:00.358Z,20.51
2018-08-22T01:34:00.393Z,20.57
2018-08-22T01:35:00.407Z,20.57
2018-08-22T01:36:00.345Z,20.61
2018-08-22T01:37:00.356Z,20.64
2018-08-22T01:38:00.351Z,20.69
2018-08-22T01:39:00.427Z,20.66
2018-08-22T01:40:00.384Z,20.64
2018-08-22T01:41:00.373Z,20.61
2018-08-22T01:42:01.075Z,20.55
2018-08-22T01:43:00.362Z,20.54
2018-08-22T01:44:00.374Z,20.55
2018-08-22T01:45:00.384Z,20.58
2018-08-22T01:46:00.373Z,20.52
2018-08-22T01:47:00.365Z,20.57
2018-08-22T01:48:00.404Z,20.52
2018-08-22T01:49:00.407Z,20.52
2018-08-22T01:50:00.377Z,20.52
2018-08-22T01:51:00.410Z,20.61
2018-08-22T01:52:00.390Z,20.62
2018-08-22T01:53:00.395Z,20.59
2018-08-22T01:54:00.384Z,20.62
2018-08-22T01:55:00.403Z,20.67
2018-08-22T01:56:00.399Z,20.70
2018-08-22T01:57:00.462Z,20.73
2018-08-22T01:58:00.413Z,20.66
2018-08-22T01:59:00.413Z,20.70
2018-08-22T02:00:00.414Z,20.57
2018-08-22T02:01:00.409Z,20.59
2018-08-22T02:02:00.427Z,20.54
2018-08-22T02:03:00.465Z,20.61
2018-08-22T02:04:00.436Z,20.57
2018-08-22T02:05:00.430Z,20.59
2018-08-22T02:06:00.435Z,20.62
2018-08-22T02:07:00.440Z,20.55
2018-08-22T02:08:00.541Z,20.51
2018-08-22T02:09:00.429Z,20.47
2018-08-22T02:10:00.484Z,20.51
2018-08-22T02:11:00.470Z,20.36
2018-08-22T02:12:00.465Z,20.41
2018-08-22T02:13:00.531Z,20.33
2018-08-22T02:14:00.445Z,20.39
2018-08-22T02:15:00.451Z,20.41
2018-08-22T02:16:00.444Z,20.32
2018-08-22T02:17:00.457Z,20.33
2018-08-22T02:18:00.462Z,20.33
2018-08-22T02:19:00.477Z,20.32
2018-08-22T02:20:00.462Z,20.32
2018-08-22T02:21:00.493Z,20.36
2018-08-22T02:22:00.470Z,20.33
2018-08-22T02:23:00.481Z,20.38
2018-08-22T02:24:00.484Z,20.29
2018-08-22T02:25:00.556Z,20.33
2018-08-22T02:26:01.090Z,20.35
2018-08-22T02:27:00.495Z,20.28
2018-08-22T02:28:00.503Z,20.35
2018-08-22T02:29:00.494Z,20.24
2018-08-22T02:30:00.517Z,20.31
2018-08-22T02:31:00.516Z,20.29
2018-08-22T02:32:00.512Z,20.29
2018-08-22T02:33:00.541Z,20.26
2018-08-22T02:34:00.513Z,20.26
2018-08-22T02:35:00.527Z,20.31
2018-08-22T02:36:00.510Z,20.20
2018-08-22T02:37:00.542Z,20.18
2018-08-22T02:38:00.496Z,20.28
2018-08-22T02:39:00.512Z,20.11
2018-08-22T02:40:00.525Z,20.31
2018-08-22T02:41:00.518Z,20.11
2018-08-22T02:42:00.548Z,20.21
2018-08-22T02:43:00.538Z,20.11
2018-08-22T02:44:00.508Z,20.13
2018-08-22T02:45:00.551Z,20.14
2018-08-22T02:46:00.528Z,20.10
2018-08-22T02:47:00.577Z,20.10
2018-08-22T02:48:00.537Z,19.98
2018-08-22T02:49:01.101Z,20.06
2018-08-22T02:50:00.535Z,20.02
2018-08-22T02:51:00.608Z,20.02
2018-08-22T02:52:00.559Z,19.95
2018-08-22T02:53:00.541Z,19.92
2018-08-22T02:54:00.581Z,20.01
2018-08-22T02:55:00.551Z,20.03
2018-08-22T02:56:00.563Z,19.96
2018-08-22T02:57:00.618Z,19.98
2018-08-22T02:58:00.548Z,20.01
2018-08-22T02:59:00.574Z,19.92
2018-08-22T03:00:00.580Z,20.01
2018-08-22T03:01:00.580Z,20.03
2018-08-22T03:02:00.567Z,19.92
2018-08-22T03:03:00.573Z,19.92
2018-08-22T03:04:00.569Z,19.96
2018-08-22T03:05:00.567Z,19.92
2018-08-22T03:06:00.601Z,19.92
2018-08-22T03:07:00.590Z,19.91
2018-08-22T03:08:00.577Z,19.88
2018-08-22T03:09:00.604Z,19.88
2018-08-22T03:10:00.635Z,19.83
2018-08-22T03:11:00.595Z,19.88
2018-08-22T03:12:00.653Z,19.87
2018-08-22T03:13:00.636Z,19.95
2018-08-22T03:14:00.667Z,19.84
2018-08-22T03:15:00.617Z,19.92
2018-08-22T03:16:00.613Z,19.91
2018-08-22T03:17:00.599Z,19.88
2018-08-22T03:18:00.620Z,19.95
2018-08-22T03:19:00.599Z,19.88
2018-08-22T03:20:01.115Z,19.86
2018-08-22T03:21:00.656Z,19.83
2018-08-22T03:22:00.652Z,19.80
2018-08-22T03:23:00.624Z,19.96
2018-08-22T03:24:00.624Z,19.84
2018-08-22T03:25:00.641Z,19.83
2018-08-22T03:26:00.710Z,19.84
2018-08-22T03:27:00.631Z,19.81
2018-08-22T03:28:00.669Z,19.77
2018-08-22T03:29:00.667Z,19.84
2018-08-22T03:30:01.119Z,19.83
2018-08-22T03:31:00.679Z,19.80
2018-08-22T03:32:00.654Z,19.86
2018-08-22T03:33:00.657Z,19.84
2018-08-22T03:34:00.696Z,19.84
2018-08-22T03:35:00.676Z,19.78
2018-08-22T03:36:00.679Z,19.88
2018-08-22T03:37:00.667Z,19.91
2018-08-22T03:38:00.695Z,19.81
2018-08-22T03:39:00.686Z,19.81
2018-08-22T03:40:00.661Z,19.80
2018-08-22T03:41:00.653Z,19.95
2018-08-22T03:42:00.744Z,19.84
2018-08-22T03:43:00.675Z,19.81
2018-08-22T03:44:00.663Z,19.80
2018-08-22T03:45:00.669Z,19.84
2018-08-22T03:46:01.623Z,19.92
2018-08-22T03:47:00.709Z,19.83
2018-08-22T03:48:00.696Z,19.83
2018-08-22T03:49:00.704Z,19.84
2018-08-22T03:50:00.683Z,19.80
2018-08-22T03:51:00.746Z,19.83
2018-08-22T03:52:00.723Z,19.74
2018-08-22T03:53:00.708Z,19.81
2018-08-22T03:54:00.715Z,19.78
2018-08-22T03:55:00.703Z,19.83
2018-08-22T03:56:00.718Z,19.84
2018-08-22T03:57:00.718Z,19.80
2018-08-22T03:58:00.728Z,19.77
2018-08-22T03:59:00.727Z,19.87
2018-08-22T04:00:00.736Z,19.83
2018-08-22T04:01:01.649Z,19.78
2018-08-22T04:02:00.747Z,19.91
2018-08-22T04:03:00.725Z,19.84
2018-08-22T04:04:00.717Z,19.83
2018-08-22T04:05:00.717Z,19.87
2018-08-22T04:06:00.770Z,19.92
2018-08-22T04:07:00.718Z,19.83
2018-08-22T04:08:00.740Z,19.88
2018-08-22T04:09:00.768Z,19.86
2018-08-22T04:10:00.771Z,19.96
2018-08-22T04:11:00.741Z,19.84
2018-08-22T04:12:00.747Z,19.81
2018-08-22T04:13:00.735Z,19.87
2018-08-22T04:14:00.829Z,19.76
2018-08-22T04:15:00.775Z,19.80
2018-08-22T04:16:00.768Z,19.71
2018-08-22T04:17:00.766Z,19.80
2018-08-22T04:18:00.796Z,19.76
2018-08-22T04:19:00.806Z,19.83
2018-08-22T04:20:00.747Z,19.83
2018-08-22T04:21:00.794Z,19.78
2018-08-22T04:22:00.795Z,19.73
2018-08-22T04:23:00.781Z,19.71
2018-08-22T04:24:00.794Z,19.76
2018-08-22T04:25:00.810Z,19.81
2018-08-22T04:26:00.782Z,19.76
2018-08-22T04:27:00.821Z,19.77
2018-08-22T04:28:00.795Z,19.63
2018-08-22T04:29:01.643Z,19.63
2018-08-22T04:30:00.824Z,19.62
2018-08-22T04:31:00.844Z,19.66
2018-08-22T04:32:00.808Z,19.73
2018-08-22T04:33:00.812Z,19.73
2018-08-22T04:34:00.818Z,19.77
2018-08-22T04:35:00.802Z,19.73
2018-08-22T04:36:00.830Z,19.73
2018-08-22T04:37:01.645Z,19.71
2018-08-22T04:38:00.814Z,19.71
2018-08-22T04:39:00.850Z,19.77
2018-08-22T04:40:00.821Z,19.68
2018-08-22T04:41:00.819Z,19.71
2018-08-22T04:42:00.805Z,19.76
2018-08-22T04:43:00.841Z,19.71
2018-08-22T04:44:00.824Z,19.81
2018-08-22T04:45:00.826Z,19.83
2018-08-22T04:46:00.820Z,19.76
2018-08-22T04:47:00.860Z,19.68
2018-08-22T04:48:00.847Z,19.81
2018-08-22T04:49:00.828Z,19.81
2018-08-22T04:50:00.864Z,19.91
2018-08-22T04:51:00.912Z,19.88
2018-08-22T04:52:01.890Z,19.88
2018-08-22T04:53:01.073Z,19.87
2018-08-22T04:54:00.884Z,19.88
2018-08-22T04:55:01.685Z,19.92
2018-08-22T04:56:01.013Z,19.92
2018-08-22T04:57:00.888Z,19.92
2018-08-22T04:58:01.057Z,19.98
2018-08-22T04:59:01.059Z,19.96
2018-08-22T05:00:01.255Z,20.02
2018-08-22T05:01:01.022Z,20.05
2018-08-22T05:02:00.936Z,20.18
2018-08-22T05:03:00.987Z,20.10
2018-08-22T05:04:00.922Z,20.16
2018-08-22T05:05:01.041Z,20.18
2018-08-22T05:06:00.971Z,20.17
2018-08-22T05:07:01.082Z,20.11
2018-08-22T05:08:01.101Z,20.14
2018-08-22T05:09:01.291Z,20.13
2018-08-22T05:10:01.430Z,20.23
2018-08-22T05:11:01.093Z,20.31
2018-08-22T05:12:01.897Z,20.26
2018-08-22T05:13:01.329Z,20.26
2018-08-22T05:14:01.807Z,20.26
2018-08-22T05:15:01.013Z,20.26
2018-08-22T05:16:00.999Z,20.29
2018-08-22T05:17:01.752Z,20.31
2018-08-22T05:18:00.953Z,20.31
2018-08-22T05:19:01.285Z,20.21
2018-08-22T05:20:01.115Z,20.31
2018-08-22T05:21:01.007Z,20.42
2018-08-22T05:22:01.081Z,20.33
2018-08-22T05:23:03.969Z,20.31
2018-08-22T05:24:01.033Z,20.36
2018-08-22T05:25:01.292Z,20.38
2018-08-22T05:26:01.192Z,20.59
2018-08-22T05:27:01.089Z,20.55
2018-08-22T05:28:01.070Z,20.69
2018-08-22T05:29:01.033Z,20.74
2018-08-22T05:30:02.134Z,20.79
2018-08-22T05:31:01.112Z,20.82
2018-08-22T05:32:01.024Z,20.88
2018-08-22T05:33:01.096Z,20.99
2018-08-22T05:34:01.312Z,20.91
2018-08-22T05:35:01.074Z,21.03
2018-08-22T05:36:01.672Z,21.09
2018-08-22T05:37:01.134Z,21.22
2018-08-22T05:38:01.081Z,21.24
2018-08-22T05:39:01.359Z,21.28
2018-08-22T05:40:01.059Z,21.21
2018-08-22T05:41:01.241Z,21.34
2018-08-22T05:42:01.310Z,21.44
2018-08-22T05:43:01.739Z,21.43
2018-08-22T05:44:01.225Z,21.43
2018-08-22T05:45:01.087Z,21.74
2018-08-22T05:46:01.070Z,22.17
2018-08-22T05:47:01.674Z,22.43
2018-08-22T05:48:01.638Z,22.55
2018-08-22T05:49:01.280Z,22.45
2018-08-22T05:50:01.048Z,22.40
2018-08-22T05:51:01.023Z,22.40
2018-08-22T05:52:01.172Z,22.21
2018-08-22T05:53:01.092Z,22.07
2018-08-22T05:54:01.133Z,22.09
2018-08-22T05:55:01.285Z,22.06
2018-08-22T05:56:01.212Z,21.98
2018-08-22T05:57:01.095Z,22.22
2018-08-22T05:58:01.101Z,22.27
2018-08-22T05:59:01.037Z,22.40
2018-08-22T06:00:01.048Z,22.51
2018-08-22T06:01:01.125Z,22.40
2018-08-22T06:02:01.693Z,22.37
2018-08-22T06:03:01.131Z,22.28
2018-08-22T06:04:01.070Z,22.25
2018-08-22T06:05:01.337Z,22.40
2018-08-22T06:06:01.228Z,22.42
2018-08-22T06:07:01.155Z,22.31
2018-08-22T06:08:01.253Z,22.39
2018-08-22T06:09:01.259Z,22.36
2018-08-22T06:10:04.354Z,23.22
2018-08-22T06:11:01.176Z,24.30
2018-08-22T06:12:01.094Z,24.78
2018-08-22T06:13:01.093Z,25.42
2018-08-22T06:14:01.065Z,25.85
2018-08-22T06:15:01.110Z,25.92
2018-08-22T06:16:01.099Z,26.39
2018-08-22T06:17:01.072Z,26.06
2018-08-22T06:18:01.114Z,26.13
2018-08-22T06:19:01.114Z,26.26
2018-08-22T06:20:01.078Z,25.99
2018-08-22T06:21:01.098Z,25.25
2018-08-22T06:22:01.115Z,24.87
2018-08-22T06:23:01.148Z,24.87
2018-08-22T06:24:01.187Z,25.39
2018-08-22T06:25:01.116Z,26.06
2018-08-22T06:26:01.109Z,25.82
2018-08-22T06:27:01.116Z,25.40
2018-08-22T06:28:01.132Z,26.09
2018-08-22T06:29:01.144Z,26.60
2018-08-22T06:30:01.149Z,27.00
2018-08-22T06:31:01.149Z,27.22
2018-08-22T06:32:01.151Z,27.25
2018-08-22T06:33:01.268Z,26.87
2018-08-22T06:34:01.187Z,26.82
2018-08-22T06:35:01.160Z,27.49
2018-08-22T06:36:01.160Z,27.92
2018-08-22T06:37:01.197Z,27.79
2018-08-22T06:38:01.219Z,27.43
2018-08-22T06:39:01.176Z,27.39
2018-08-22T06:40:01.224Z,27.21
2018-08-22T06:41:01.224Z,27.47
2018-08-22T06:42:01.221Z,27.34
2018-08-22T06:43:01.233Z,27.77
2018-08-22T06:44:02.775Z,27.46
2018-08-22T06:45:01.244Z,27.43
2018-08-22T06:46:01.294Z,26.92
2018-08-22T06:47:01.259Z,26.20
2018-08-22T06:48:01.451Z,26.51
2018-08-22T06:49:01.246Z,27.37
2018-08-22T06:50:01.267Z,27.41
2018-08-22T06:51:01.294Z,27.27
2018-08-22T06:52:01.279Z,27.09
2018-08-22T06:53:01.293Z,27.41
2018-08-22T06:54:01.393Z,27.50
2018-08-22T06:55:01.367Z,27.44
2018-08-22T06:56:01.300Z,27.19
2018-08-22T06:57:01.459Z,27.04
2018-08-22T06:58:01.343Z,26.76
2018-08-22T06:59:01.440Z,25.77
2018-08-22T07:00:01.432Z,25.51
2018-08-22T07:01:01.354Z,25.57
2018-08-22T07:02:01.436Z,25.47
2018-08-22T07:03:01.372Z,25.40
2018-08-22T07:04:01.369Z,25.45
2018-08-22T07:05:01.489Z,25.14
2018-08-22T07:06:01.390Z,25.14
2018-08-22T07:07:02.224Z,24.83
2018-08-22T07:08:01.581Z,24.69
2018-08-22T07:09:01.590Z,24.85
2018-08-22T07:10:01.506Z,24.83
2018-08-22T07:11:02.225Z,24.67
2018-08-22T07:12:01.442Z,24.65
2018-08-22T07:13:01.467Z,24.34
2018-08-22T07:14:01.535Z,24.16
2018-08-22T07:15:01.472Z,24.15
2018-08-22T07:16:01.488Z,24.08
2018-08-22T07:17:01.501Z,23.95
2018-08-22T07:18:01.587Z,23.95
2018-08-22T07:19:01.576Z,23.61
2018-08-22T07:20:01.540Z,23.60
2018-08-22T07:21:01.564Z,23.61
2018-08-22T07:22:01.671Z,23.55
2018-08-22T07:23:01.532Z,23.55
2018-08-22T07:24:01.541Z,23.33
2018-08-22T07:25:01.513Z,23.38
2018-08-22T07:26:01.568Z,23.91
2018-08-22T07:27:01.593Z,25.35
2018-08-22T07:28:02.483Z,26.05
2018-08-22T07:29:01.545Z,26.50
2018-08-22T07:30:01.586Z,27.87
2018-08-22T07:31:01.575Z,28.29
2018-08-22T07:32:01.653Z,28.89
2018-08-22T07:33:01.576Z,29.57
2018-08-22T07:34:01.594Z,29.52
2018-08-22T07:35:03.249Z,30.42
2018-08-22T07:36:01.736Z,30.70
2018-08-22T07:37:04.449Z,30.67
2018-08-22T07:38:04.494Z,29.57
2018-08-22T07:39:03.236Z,29.90
2018-08-22T07:40:01.921Z,29.90
2018-08-22T07:41:04.540Z,30.34
2018-08-22T07:42:08.939Z,30.69
2018-08-22T07:43:07.489Z,30.88
2018-08-22T07:44:03.431Z,31.23
2018-08-22T07:45:01.758Z,30.83
2018-08-22T07:46:03.382Z,31.36
2018-08-22T07:47:01.861Z,31.57
2018-08-22T07:48:01.680Z,31.99
2018-08-22T07:49:04.675Z,31.84
2018-08-22T07:50:01.783Z,32.13
2018-08-22T07:51:01.767Z,31.95
2018-08-22T07:52:01.842Z,32.29
2018-08-22T07:53:01.779Z,32.66
2018-08-22T07:54:01.748Z,32.37
2018-08-22T07:55:02.191Z,32.40
2018-08-22T07:56:01.763Z,31.04
2018-08-22T07:57:01.782Z,31.65
2018-08-22T07:58:01.789Z,31.69
2018-08-22T07:59:01.754Z,31.47
2018-08-22T08:00:01.854Z,31.58
2018-08-22T08:01:01.824Z,31.73
2018-08-22T08:02:01.991Z,31.57
2018-08-22T08:03:01.841Z,31.53
2018-08-22T08:04:01.806Z,31.73
2018-08-22T08:05:01.877Z,32.23
2018-08-22T08:06:01.897Z,32.29
2018-08-22T08:07:02.163Z,32.25
2018-08-22T08:08:01.916Z,32.32
2018-08-22T08:09:01.896Z,32.65
2018-08-22T08:10:01.955Z,32.01
2018-08-22T08:11:01.970Z,32.79
2018-08-22T08:12:03.768Z,33.03
2018-08-22T08:13:01.973Z,32.67
2018-08-22T08:14:01.993Z,31.73
2018-08-22T08:15:02.000Z,31.65
2018-08-22T08:16:01.981Z,30.99
2018-08-22T08:17:02.100Z,31.02
2018-08-22T08:18:02.051Z,31.66
2018-08-22T08:19:02.033Z,31.85
2018-08-22T08:20:02.892Z,32.04
2018-08-22T08:21:02.050Z,31.56
2018-08-22T08:22:02.035Z,31.44
2018-08-22T08:23:02.081Z,32.21
2018-08-22T08:24:02.770Z,33.01
2018-08-22T08:25:02.163Z,33.50
2018-08-22T08:26:02.145Z,31.96
2018-08-22T08:27:02.203Z,31.65
2018-08-22T08:28:02.143Z,32.28
2018-08-22T08:29:02.171Z,32.75
2018-08-22T08:30:02.231Z,31.91
2018-08-22T08:31:02.213Z,32.70
2018-08-22T08:32:02.228Z,32.94
2018-08-22T08:33:02.233Z,33.78
2018-08-22T08:34:02.219Z,34.21
2018-08-22T08:35:02.906Z,34.72
2018-08-22T08:36:02.277Z,34.65
2018-08-22T08:37:02.301Z,34.17
2018-08-22T08:38:02.334Z,33.49
2018-08-22T08:39:02.318Z,33.59
2018-08-22T08:40:02.286Z,34.00
2018-08-22T08:41:02.349Z,33.31
2018-08-22T08:42:02.306Z,33.44
2018-08-22T08:43:02.460Z,33.44
2018-08-22T08:44:02.395Z,33.66
2018-08-22T08:45:02.443Z,34.13
2018-08-22T08:46:02.415Z,34.52
2018-08-22T08:47:02.419Z,34.82
2018-08-22T08:48:02.479Z,34.73
2018-08-22T08:49:02.676Z,33.95
2018-08-22T08:50:02.564Z,33.63
2018-08-22T08:51:04.038Z,33.35
2018-08-22T08:52:02.494Z,33.94
2018-08-22T08:53:02.597Z,34.05
2018-08-22T08:54:04.264Z,34.73
2018-08-22T08:55:02.632Z,34.52
2018-08-22T08:56:03.419Z,34.78
2018-08-22T08:59:38.397Z,33.51
2018-08-22T09:03:04.742Z,34.39
2018-08-22T09:04:05.197Z,34.58
2018-08-22T09:06:00.487Z,34.99
2018-08-22T09:06:58.492Z,35.18
2018-08-22T09:07:58.134Z,35.90
2018-08-22T09:08:59.220Z,36.20
2018-08-22T09:09:59.199Z,35.74
2018-08-22T09:10:58.371Z,35.11
2018-08-22T09:11:58.272Z,35.45
2018-08-22T09:12:58.380Z,35.48
2018-08-22T09:13:58.332Z,34.82
2018-08-22T09:14:59.060Z,34.77
2018-08-22T09:15:59.212Z,34.54
2018-08-22T09:16:58.343Z,34.54
2018-08-22T09:17:58.371Z,35.11
2018-08-22T09:18:58.371Z,34.97
2018-08-22T09:19:59.314Z,34.75
2018-08-22T09:22:31.899Z,34.72
2018-08-22T09:23:30.958Z,35.19
2018-08-22T09:24:31.444Z,34.46
2018-08-22T09:25:30.899Z,34.82
2018-08-22T09:26:31.576Z,35.37
2018-08-22T09:27:31.117Z,35.23
2018-08-22T09:28:30.998Z,33.51
2018-08-22T09:29:31.018Z,34.17
2018-08-22T09:30:31.000Z,34.69
2018-08-22T09:31:33.639Z,34.81
2018-08-22T09:32:31.025Z,34.24
2018-08-22T09:33:31.058Z,33.54
2018-08-22T09:34:31.023Z,33.81
2018-08-22T09:35:31.091Z,34.06
2018-08-22T09:36:31.062Z,34.92
2018-08-22T09:37:31.060Z,34.69
2018-08-22T09:38:31.100Z,35.44
2018-08-22T09:39:31.264Z,35.10
2018-08-22T09:40:31.258Z,34.96
2018-08-22T09:41:31.209Z,35.22
2018-08-22T09:42:31.179Z,34.87
2018-08-22T09:43:31.235Z,35.22
2018-08-22T09:44:31.307Z,35.16
2018-08-22T09:45:31.419Z,35.21
2018-08-22T09:46:35.586Z,35.70
2018-08-22T09:48:31.996Z,34.80
2018-08-22T09:49:32.906Z,34.21
2018-08-22T09:50:31.395Z,33.56
2018-08-22T09:51:31.368Z,33.60
2018-08-22T09:52:31.402Z,33.84
2018-08-22T09:53:31.424Z,34.28
2018-08-22T09:54:31.487Z,33.44
2018-08-22T09:55:31.459Z,33.82
2018-08-22T09:56:31.456Z,34.22
2018-08-22T09:57:31.481Z,34.87
2018-08-22T09:58:31.740Z,34.22
2018-08-22T09:59:31.551Z,34.66
2018-08-22T10:00:31.747Z,33.56
2018-08-22T10:01:31.537Z,33.31
2018-08-22T10:02:31.581Z,33.29
2018-08-22T10:03:31.625Z,33.63
2018-08-22T10:04:31.595Z,32.99
2018-08-22T10:05:31.732Z,32.92
2018-08-22T10:06:31.964Z,33.31
2018-08-22T10:07:31.792Z,34.16
2018-08-22T10:08:32.273Z,34.92
2018-08-22T10:11:05.309Z,35.93
2018-08-22T10:12:05.129Z,35.93
2018-08-22T10:13:05.198Z,36.09
2018-08-22T10:14:07.777Z,35.02
2018-08-22T10:15:05.055Z,35.52
2018-08-22T10:16:05.137Z,36.00
2018-08-22T10:17:05.131Z,36.43
2018-08-22T10:18:05.207Z,35.74
2018-08-22T10:19:05.196Z,35.63
2018-08-22T10:20:05.192Z,35.25
2018-08-22T10:21:05.176Z,35.28
2018-08-22T10:22:05.224Z,35.03
2018-08-22T10:23:05.240Z,35.18
2018-08-22T10:24:05.240Z,35.16
2018-08-22T10:25:05.285Z,35.07
2018-08-22T10:26:05.243Z,34.81
2018-08-22T10:27:05.334Z,33.73
2018-08-22T10:28:05.361Z,33.29
2018-08-22T10:29:05.349Z,33.78
2018-08-22T10:30:05.349Z,33.60
2018-08-22T10:31:06.249Z,33.90
2018-08-22T10:32:05.409Z,34.12
2018-08-22T10:33:05.489Z,34.62
2018-08-22T10:34:05.463Z,34.91
2018-08-22T10:35:05.569Z,34.12
2018-08-22T10:36:05.480Z,34.58
2018-08-22T10:37:05.480Z,35.03
2018-08-22T10:38:05.495Z,35.15
2018-08-22T10:39:05.527Z,35.21
2018-08-22T10:40:05.540Z,35.19
2018-08-22T10:41:05.549Z,35.72
2018-08-22T10:42:05.592Z,35.52
2018-08-22T10:43:05.617Z,35.72
2018-08-22T10:44:05.594Z,35.66
2018-08-22T10:45:06.559Z,34.80
2018-08-22T10:46:05.768Z,34.15
2018-08-22T10:47:05.665Z,33.61
2018-08-22T10:48:06.067Z,33.88
2018-08-22T10:49:06.290Z,34.53
2018-08-22T10:50:05.788Z,34.77
2018-08-22T10:51:05.757Z,34.88
2018-08-22T10:52:05.785Z,35.45
2018-08-22T10:53:05.825Z,35.65
2018-08-22T10:54:05.820Z,34.54
2018-08-22T10:55:05.880Z,34.42
2018-08-22T10:56:05.873Z,34.25
2018-08-22T10:57:06.021Z,34.28
2018-08-22T10:58:05.875Z,33.94
2018-08-22T10:59:06.785Z,33.57
2018-08-22T11:00:05.965Z,33.47
2018-08-22T11:01:05.942Z,33.57
2018-08-22T11:02:07.062Z,33.81
2018-08-22T11:03:05.968Z,33.72
2018-08-22T11:04:06.004Z,33.78
2018-08-22T11:05:06.021Z,33.56
2018-08-22T11:06:06.066Z,32.75
2018-08-22T11:07:06.044Z,32.37
2018-08-22T11:08:06.091Z,32.72
2018-08-22T11:09:06.130Z,33.04
2018-08-22T11:10:06.271Z,32.84
2018-08-22T11:11:06.076Z,33.34
2018-08-22T11:12:06.089Z,33.39
2018-08-22T11:13:06.121Z,33.68
2018-08-22T11:14:06.229Z,34.05
2018-08-22T11:15:06.136Z,33.82
2018-08-22T11:16:06.235Z,33.57
2018-08-22T11:17:06.250Z,33.41
2018-08-22T11:18:06.221Z,32.89
2018-08-22T11:19:06.204Z,32.22
2018-08-22T11:20:06.279Z,32.25
2018-08-22T11:21:07.917Z,31.92
2018-08-22T11:22:06.263Z,32.00
2018-08-22T11:23:06.286Z,32.00
2018-08-22T11:24:06.317Z,32.10
2018-08-22T11:25:09.957Z,32.57
2018-08-22T11:26:06.434Z,32.75
2018-08-22T11:27:06.352Z,33.03
2018-08-22T11:28:06.399Z,32.88
2018-08-22T11:29:06.394Z,33.04
2018-08-22T11:30:07.022Z,32.99
2018-08-22T11:31:06.398Z,33.15
2018-08-22T11:32:06.425Z,33.47
2018-08-22T11:33:06.452Z,33.63
2018-08-22T11:34:06.583Z,33.45
2018-08-22T11:35:06.452Z,33.39
2018-08-22T11:36:06.500Z,32.52
2018-08-22T11:37:06.501Z,32.66
2018-08-22T11:38:06.524Z,33.11
2018-08-22T11:39:06.513Z,33.47
2018-08-22T11:40:06.490Z,33.38
2018-08-22T11:41:06.493Z,33.47
2018-08-22T11:42:06.944Z,33.51
2018-08-22T11:43:06.543Z,33.44
2018-08-22T11:44:06.678Z,33.16
2018-08-22T11:45:06.632Z,33.11
2018-08-22T11:46:07.547Z,32.96
2018-08-22T11:47:06.660Z,32.96
2018-08-22T11:48:06.615Z,32.78
2018-08-22T11:49:06.594Z,32.70
2018-08-22T11:50:06.759Z,32.25
2018-08-22T11:51:06.745Z,32.48
2018-08-22T11:52:06.671Z,32.56
2018-08-22T11:53:06.677Z,32.67
2018-08-22T11:54:06.866Z,32.88
2018-08-22T11:55:06.767Z,33.07
2018-08-22T11:56:06.832Z,33.23
2018-08-22T11:57:06.716Z,33.11
2018-08-22T11:58:06.756Z,33.00
2018-08-22T11:59:08.959Z,32.79
2018-08-22T12:00:06.790Z,32.87
2018-08-22T12:01:06.730Z,33.06
2018-08-22T12:02:06.836Z,33.38
2018-08-22T12:03:06.748Z,33.45
2018-08-22T12:04:06.821Z,33.45
2018-08-22T12:05:06.793Z,33.50
2018-08-22T12:06:06.819Z,33.59
2018-08-22T12:07:06.800Z,33.73
2018-08-22T12:08:06.889Z,33.47
2018-08-22T12:09:06.847Z,32.97
2018-08-22T12:10:06.890Z,32.47
2018-08-22T12:11:06.941Z,32.26
2018-08-22T12:12:07.507Z,32.13
2018-08-22T12:13:06.958Z,32.03
2018-08-22T12:14:06.923Z,32.00
2018-08-22T12:15:06.897Z,32.11
2018-08-22T12:16:06.915Z,32.07
2018-08-22T12:17:06.910Z,31.73
2018-08-22T12:18:06.899Z,31.51
2018-08-22T12:19:07.099Z,31.47
2018-08-22T12:20:07.001Z,31.35
2018-08-22T12:21:06.966Z,31.25
2018-08-22T12:22:06.972Z,31.14
2018-08-22T12:23:07.080Z,31.10
2018-08-22T12:24:06.932Z,31.39
2018-08-22T12:25:07.188Z,31.80
2018-08-22T12:26:06.998Z,32.22
2018-08-22T12:27:07.054Z,32.45
2018-08-22T12:28:07.045Z,32.59
2018-08-22T12:29:07.023Z,32.78
2018-08-22T12:30:07.110Z,32.72
2018-08-22T12:31:07.059Z,32.78
2018-08-22T12:32:07.858Z,32.88
2018-08-22T12:33:07.123Z,32.63
2018-08-22T12:34:07.096Z,32.35
2018-08-22T12:35:07.126Z,31.70
2018-08-22T12:36:07.091Z,31.68
2018-08-22T12:37:07.105Z,31.81
2018-08-22T12:38:07.117Z,31.61
2018-08-22T12:39:07.126Z,31.57
2018-08-22T12:40:07.910Z,31.44
2018-08-22T12:41:07.118Z,31.48
2018-08-22T12:42:10.007Z,31.51
2018-08-22T12:43:07.236Z,31.50
2018-08-22T12:44:07.193Z,31.78
2018-08-22T12:45:07.197Z,32.10
2018-08-22T12:46:07.241Z,32.26
2018-08-22T12:47:07.419Z,32.33
2018-08-22T12:48:07.237Z,32.55
2018-08-22T12:49:07.213Z,32.69
2018-08-22T12:50:07.316Z,32.59
2018-08-22T12:51:08.522Z,32.63
2018-08-22T12:52:08.997Z,32.45
2018-08-22T12:53:07.300Z,32.45
2018-08-22T12:54:07.260Z,32.62
2018-08-22T12:55:07.363Z,32.65
2018-08-22T12:56:07.311Z,32.47
2018-08-22T12:57:07.340Z,32.37
2018-08-22T12:58:07.395Z,32.40
2018-08-22T12:59:07.330Z,32.21
2018-08-22T13:00:07.432Z,32.23
2018-08-22T13:01:07.309Z,32.25
2018-08-22T13:02:07.363Z,32.23